< < Back
Terminal Aerodrome Forecast


Current Version              Previous Versions:   1  2  3  4  5  6  7  8  9  

Terminal Aerodrome Forecast

720
FTUS42 KJAX 292338
TAFJAX
TAF
KJAX 292338Z 3000/3024 VRB04KT P6SM FEW050 SCT200
     FM301600 24009KT P6SM SCT040 PROB30 3020/3024 VRB15G25KT 3SM
      TSRA BKN040CB OVC080=

Latest METAR

649
SAUS80 KWBC 301200 RRA
MTRJAX
METAR KJAX 301156Z 24004KT 3/4SM R08/3000V4500FT BR OVC002 23/23 A2996
RMK AO2 SLP146 T02330233 10233 20217 53013


USA.gov is the U.S. government's official web portal to all federal, state and local government web resources and services.